This is the latest recevied weather packets stored in our database for station/object SP7WMI-13. If no packets are shown the sender has not sent any weather packets the latest 10 day(s).
| Time | Temp. | Humidity | Pressure | Rain* | Wind** | Luminosity | Snow |
|---|---|---|---|---|---|---|---|
| 1777992878 | 27.78° C | 21% | 1004 hPa | 0 mm | - | - | - |
| 1777991975 | 28.33° C | 21% | 1004.1 hPa | 0 mm | - | - | - |
| 1777991072 | 28.89° C | 20% | 1004.3 hPa | 0 mm | - | - | - |
| 1777990621 | 29.44° C | 20% | 1004.3 hPa | 0 mm | - | - | - |
| 1777989928 | 29.44° C | 21% | 1004.4 hPa | 0 mm | - | - | - |
| 1777989226 | 29.44° C | 21% | 1004.7 hPa | 0 mm | - | - | - |
| 1777988819 | 29.44° C | 21% | 1004.6 hPa | 0 mm | - | - | - |
| 1777988460 | 29.44° C | 20% | 1004.7 hPa | 0 mm | - | - | - |
| 1777987734 | 28.89° C | 21% | 1004.8 hPa | 0 mm | - | - | - |
| 1777987431 | 29.44° C | 21% | 1004.8 hPa | 0 mm | - | - | - |
| 1777987027 | 28.89° C | 21% | 1004.8 hPa | 0 mm | - | - | - |
| 1777986692 | 28.89° C | 21% | 1005 hPa | 0 mm | - | - | - |
| 1777986387 | 28.33° C | 22% | 1004.9 hPa | 0 mm | - | - | - |
| 1777985484 | 29.44° C | 20% | 1005 hPa | 0 mm | - | - | - |
| 1777984581 | 28.33° C | 21% | 1005.4 hPa | 0 mm | - | - | - |
| 1777983678 | 28.33° C | 21% | 1005.6 hPa | 0 mm | - | - | - |
| 1777982775 | 26.67° C | 24% | 1005.8 hPa | 0 mm | - | - | - |
| 1777981871 | 25.56° C | 27% | 1006 hPa | 0 mm | - | - | - |
| 1777980969 | 26.11° C | 27% | 1005.9 hPa | 0 mm | - | - | - |
| 1777980065 | 25° C | 32% | 1006.1 hPa | 0 mm | - | - | - |
| 1777979471 | 24.44° C | 32% | 1006.3 hPa | 0 mm | - | - | - |
| 1777978784 | 24.44° C | 32% | 1006.4 hPa | 0 mm | - | - | - |
| 1777978139 | 25° C | 32% | 1006.6 hPa | 0 mm | - | - | - |
| 1777977462 | 25° C | 35% | 1006.7 hPa | 0 mm | - | - | - |
| 1777976559 | 24.44° C | 35% | 1006.9 hPa | 0 mm | - | - | - |
* Rain since midnight (hover to see other rain measurements)
** Current wind speed in m/s (hover to see current wind gust speed)